sensor_id;sensor_type;location;lat;lon;timestamp;P1;durP1;ratioP1;P2;durP2;ratioP2
21798;SDS011;24973;47.178;15.316;2022-11-06T00:00:44;2.47;;;1.80;;
21798;SDS011;24973;47.178;15.316;2022-11-06T00:03:33;2.43;;;1.90;;
21798;SDS011;24973;47.178;15.316;2022-11-06T00:06:22;1.70;;;1.53;;
21798;SDS011;24973;47.178;15.316;2022-11-06T00:09:30;1.77;;;1.67;;
21798;SDS011;24973;47.178;15.316;2022-11-06T00:12:21;1.60;;;1.30;;
21798;SDS011;24973;47.178;15.316;2022-11-06T00:15:10;3.10;;;2.10;;
21798;SDS011;24973;47.178;15.316;2022-11-06T00:17:59;2.30;;;2.10;;
21798;SDS011;24973;47.178;15.316;2022-11-06T00:20:47;3.50;;;1.47;;
21798;SDS011;24973;47.178;15.316;2022-11-06T00:23:36;1.90;;;1.50;;
21798;SDS011;24973;47.178;15.316;2022-11-06T00:26:27;1.43;;;1.27;;
21798;SDS011;24973;47.178;15.316;2022-11-06T00:29:17;2.03;;;1.53;;
21798;SDS011;24973;47.178;15.316;2022-11-06T00:32:05;1.40;;;1.30;;
21798;SDS011;24973;47.178;15.316;2022-11-06T00:34:54;1.57;;;1.47;;
21798;SDS011;24973;47.178;15.316;2022-11-06T00:37:43;2.03;;;1.63;;
21798;SDS011;24973;47.178;15.316;2022-11-06T00:40:31;1.57;;;1.47;;
21798;SDS011;24973;47.178;15.316;2022-11-06T00:43:22;1.37;;;1.23;;
21798;SDS011;24973;47.178;15.316;2022-11-06T00:46:11;1.27;;;1.17;;
21798;SDS011;24973;47.178;15.316;2022-11-06T00:49:01;1.40;;;1.00;;
21798;SDS011;24973;47.178;15.316;2022-11-06T00:51:49;1.50;;;1.27;;
21798;SDS011;24973;47.178;15.316;2022-11-06T00:54:38;2.10;;;1.70;;
21798;SDS011;24973;47.178;15.316;2022-11-06T00:57:27;4.03;;;1.10;;
21798;SDS011;24973;47.178;15.316;2022-11-06T01:00:17;0.83;;;0.83;;
21798;SDS011;24973;47.178;15.316;2022-11-06T01:03:06;2.03;;;1.53;;
21798;SDS011;24973;47.178;15.316;2022-11-06T01:05:55;5.13;;;2.27;;
21798;SDS011;24973;47.178;15.316;2022-11-06T01:08:52;3.43;;;2.17;;
21798;SDS011;24973;47.178;15.316;2022-11-06T01:11:50;4.50;;;2.87;;
21798;SDS011;24973;47.178;15.316;2022-11-06T01:15:00;3.43;;;1.70;;
21798;SDS011;24973;47.178;15.316;2022-11-06T01:17:50;1.43;;;1.33;;
21798;SDS011;24973;47.178;15.316;2022-11-06T01:20:39;2.77;;;2.00;;
21798;SDS011;24973;47.178;15.316;2022-11-06T01:23:28;1.97;;;1.70;;
21798;SDS011;24973;47.178;15.316;2022-11-06T01:26:16;2.67;;;1.93;;
21798;SDS011;24973;47.178;15.316;2022-11-06T01:29:15;1.93;;;1.73;;
21798;SDS011;24973;47.178;15.316;2022-11-06T01:32:05;1.33;;;1.23;;
21798;SDS011;24973;47.178;15.316;2022-11-06T01:34:55;2.23;;;1.50;;
21798;SDS011;24973;47.178;15.316;2022-11-06T01:37:44;1.10;;;1.00;;
21798;SDS011;24973;47.178;15.316;2022-11-06T01:40:38;3.77;;;1.73;;
21798;SDS011;24973;47.178;15.316;2022-11-06T01:43:42;2.87;;;1.20;;
21798;SDS011;24973;47.178;15.316;2022-11-06T01:46:34;1.30;;;1.00;;
21798;SDS011;24973;47.178;15.316;2022-11-06T01:49:23;1.43;;;0.93;;
21798;SDS011;24973;47.178;15.316;2022-11-06T01:52:15;0.90;;;0.90;;
21798;SDS011;24973;47.178;15.316;2022-11-06T01:55:06;1.20;;;1.10;;
21798;SDS011;24973;47.178;15.316;2022-11-06T01:57:59;2.40;;;1.47;;
21798;SDS011;24973;47.178;15.316;2022-11-06T02:00:50;1.30;;;1.20;;
21798;SDS011;24973;47.178;15.316;2022-11-06T02:03:39;3.67;;;1.97;;
21798;SDS011;24973;47.178;15.316;2022-11-06T02:06:38;3.00;;;1.87;;
21798;SDS011;24973;47.178;15.316;2022-11-06T02:09:28;4.00;;;1.67;;
21798;SDS011;24973;47.178;15.316;2022-11-06T02:12:21;1.97;;;1.63;;
21798;SDS011;24973;47.178;15.316;2022-11-06T02:15:34;1.23;;;1.17;;
21798;SDS011;24973;47.178;15.316;2022-11-06T02:18:36;1.90;;;1.70;;
21798;SDS011;24973;47.178;15.316;2022-11-06T02:21:44;1.80;;;1.70;;
21798;SDS011;24973;47.178;15.316;2022-11-06T02:28:07;1.60;;;1.50;;
21798;SDS011;24973;47.178;15.316;2022-11-06T02:31:02;6.40;;;1.10;;
21798;SDS011;24973;47.178;15.316;2022-11-06T02:33:58;1.43;;;1.27;;
21798;SDS011;24973;47.178;15.316;2022-11-06T02:36:53;3.13;;;1.10;;
21798;SDS011;24973;47.178;15.316;2022-11-06T02:39:47;1.57;;;1.00;;
21798;SDS011;24973;47.178;15.316;2022-11-06T02:42:39;1.40;;;1.03;;
21798;SDS011;24973;47.178;15.316;2022-11-06T02:45:33;5.23;;;1.10;;
21798;SDS011;24973;47.178;15.316;2022-11-06T02:48:28;1.30;;;1.20;;
21798;SDS011;24973;47.178;15.316;2022-11-06T02:51:24;1.53;;;1.33;;
21798;SDS011;24973;47.178;15.316;2022-11-06T02:54:17;1.20;;;1.10;;
21798;SDS011;24973;47.178;15.316;2022-11-06T02:57:09;1.03;;;0.70;;
21798;SDS011;24973;47.178;15.316;2022-11-06T03:00:03;1.40;;;1.00;;
21798;SDS011;24973;47.178;15.316;2022-11-06T03:02:59;1.43;;;1.33;;
21798;SDS011;24973;47.178;15.316;2022-11-06T03:05:54;1.97;;;0.97;;
21798;SDS011;24973;47.178;15.316;2022-11-06T03:08:47;0.77;;;0.63;;
21798;SDS011;24973;47.178;15.316;2022-11-06T03:11:41;0.97;;;0.97;;
21798;SDS011;24973;47.178;15.316;2022-11-06T03:14:30;1.07;;;1.07;;
21798;SDS011;24973;47.178;15.316;2022-11-06T03:17:27;1.30;;;1.10;;
21798;SDS011;24973;47.178;15.316;2022-11-06T03:20:27;1.40;;;1.30;;
21798;SDS011;24973;47.178;15.316;2022-11-06T03:23:24;1.13;;;1.03;;
21798;SDS011;24973;47.178;15.316;2022-11-06T03:26:20;1.73;;;1.20;;
21798;SDS011;24973;47.178;15.316;2022-11-06T03:29:16;1.38;;;1.20;;
21798;SDS011;24973;47.178;15.316;2022-11-06T03:32:11;1.70;;;1.30;;
21798;SDS011;24973;47.178;15.316;2022-11-06T03:35:06;4.67;;;1.07;;
21798;SDS011;24973;47.178;15.316;2022-11-06T03:38:02;1.40;;;1.30;;
21798;SDS011;24973;47.178;15.316;2022-11-06T03:40:56;1.13;;;0.93;;
21798;SDS011;24973;47.178;15.316;2022-11-06T03:43:49;2.43;;;1.30;;
21798;SDS011;24973;47.178;15.316;2022-11-06T03:46:43;1.13;;;1.13;;
21798;SDS011;24973;47.178;15.316;2022-11-06T03:49:38;1.20;;;1.10;;
21798;SDS011;24973;47.178;15.316;2022-11-06T03:52:31;0.90;;;0.90;;
21798;SDS011;24973;47.178;15.316;2022-11-06T03:55:26;1.00;;;0.93;;
21798;SDS011;24973;47.178;15.316;2022-11-06T03:58:19;1.40;;;1.30;;
21798;SDS011;24973;47.178;15.316;2022-11-06T04:01:12;1.53;;;1.40;;
21798;SDS011;24973;47.178;15.316;2022-11-06T04:04:03;0.90;;;0.90;;
21798;SDS011;24973;47.178;15.316;2022-11-06T04:06:58;1.13;;;1.03;;
21798;SDS011;24973;47.178;15.316;2022-11-06T04:09:51;0.70;;;0.70;;
21798;SDS011;24973;47.178;15.316;2022-11-06T04:13:04;2.97;;;0.90;;
21798;SDS011;24973;47.178;15.316;2022-11-06T04:16:11;0.93;;;0.93;;
21798;SDS011;24973;47.178;15.316;2022-11-06T04:19:00;0.90;;;0.90;;
21798;SDS011;24973;47.178;15.316;2022-11-06T04:21:55;0.60;;;0.60;;
21798;SDS011;24973;47.178;15.316;2022-11-06T04:25:08;1.37;;;1.27;;
21798;SDS011;24973;47.178;15.316;2022-11-06T04:28:31;0.63;;;0.63;;
21798;SDS011;24973;47.178;15.316;2022-11-06T04:31:28;1.13;;;1.07;;
21798;SDS011;24973;47.178;15.316;2022-11-06T04:34:26;1.40;;;1.30;;
21798;SDS011;24973;47.178;15.316;2022-11-06T04:37:24;1.52;;;1.38;;
21798;SDS011;24973;47.178;15.316;2022-11-06T04:40:21;1.30;;;1.23;;
21798;SDS011;24973;47.178;15.316;2022-11-06T04:43:16;1.40;;;1.30;;
21798;SDS011;24973;47.178;15.316;2022-11-06T04:46:14;1.13;;;1.00;;
21798;SDS011;24973;47.178;15.316;2022-11-06T04:49:08;2.53;;;1.27;;
21798;SDS011;24973;47.178;15.316;2022-11-06T04:51:58;2.00;;;1.30;;
21798;SDS011;24973;47.178;15.316;2022-11-06T04:54:49;0.90;;;0.90;;
21798;SDS011;24973;47.178;15.316;2022-11-06T04:57:39;1.40;;;1.30;;
21798;SDS011;24973;47.178;15.316;2022-11-06T05:00:28;1.30;;;1.20;;
21798;SDS011;24973;47.178;15.316;2022-11-06T05:03:18;1.43;;;1.30;;
21798;SDS011;24973;47.178;15.316;2022-11-06T05:06:07;0.80;;;0.80;;
21798;SDS011;24973;47.178;15.316;2022-11-06T05:08:56;1.50;;;1.40;;
21798;SDS011;24973;47.178;15.316;2022-11-06T05:11:46;2.30;;;1.30;;
21798;SDS011;24973;47.178;15.316;2022-11-06T05:14:35;1.90;;;1.80;;
21798;SDS011;24973;47.178;15.316;2022-11-06T05:17:24;2.57;;;1.33;;
21798;SDS011;24973;47.178;15.316;2022-11-06T05:20:14;1.40;;;1.30;;
21798;SDS011;24973;47.178;15.316;2022-11-06T05:23:03;1.13;;;1.00;;
21798;SDS011;24973;47.178;15.316;2022-11-06T05:25:50;1.17;;;1.17;;
21798;SDS011;24973;47.178;15.316;2022-11-06T05:28:39;2.33;;;1.70;;
21798;SDS011;24973;47.178;15.316;2022-11-06T05:31:28;1.50;;;1.27;;
21798;SDS011;24973;47.178;15.316;2022-11-06T05:34:16;4.40;;;2.03;;
21798;SDS011;24973;47.178;15.316;2022-11-06T05:37:06;1.83;;;1.70;;
21798;SDS011;24973;47.178;15.316;2022-11-06T05:39:55;1.70;;;1.57;;
21798;SDS011;24973;47.178;15.316;2022-11-06T05:42:44;1.30;;;1.20;;
21798;SDS011;24973;47.178;15.316;2022-11-06T05:45:32;1.50;;;1.40;;
21798;SDS011;24973;47.178;15.316;2022-11-06T05:48:21;1.63;;;1.53;;
21798;SDS011;24973;47.178;15.316;2022-11-06T05:51:10;1.20;;;1.10;;
21798;SDS011;24973;47.178;15.316;2022-11-06T05:54:00;1.20;;;1.10;;
21798;SDS011;24973;47.178;15.316;2022-11-06T05:56:49;3.03;;;1.70;;
21798;SDS011;24973;47.178;15.316;2022-11-06T05:59:38;2.33;;;1.70;;
21798;SDS011;24973;47.178;15.316;2022-11-06T06:02:27;1.20;;;1.10;;
21798;SDS011;24973;47.178;15.316;2022-11-06T06:05:16;1.50;;;1.40;;
21798;SDS011;24973;47.178;15.316;2022-11-06T06:08:05;1.30;;;1.20;;
21798;SDS011;24973;47.178;15.316;2022-11-06T06:10:55;0.80;;;0.80;;
21798;SDS011;24973;47.178;15.316;2022-11-06T06:13:44;1.53;;;1.43;;
21798;SDS011;24973;47.178;15.316;2022-11-06T06:16:33;2.83;;;1.20;;
21798;SDS011;24973;47.178;15.316;2022-11-06T06:19:22;1.33;;;1.20;;
21798;SDS011;24973;47.178;15.316;2022-11-06T06:22:11;1.27;;;1.17;;
21798;SDS011;24973;47.178;15.316;2022-11-06T06:25:00;2.33;;;1.67;;
21798;SDS011;24973;47.178;15.316;2022-11-06T06:27:50;5.47;;;3.10;;
21798;SDS011;24973;47.178;15.316;2022-11-06T06:30:39;1.83;;;1.73;;
21798;SDS011;24973;47.178;15.316;2022-11-06T06:33:28;1.30;;;1.20;;
21798;SDS011;24973;47.178;15.316;2022-11-06T06:36:16;1.50;;;1.20;;
21798;SDS011;24973;47.178;15.316;2022-11-06T06:39:05;1.20;;;1.10;;
21798;SDS011;24973;47.178;15.316;2022-11-06T06:41:54;1.27;;;1.27;;
21798;SDS011;24973;47.178;15.316;2022-11-06T06:44:45;1.60;;;1.50;;
21798;SDS011;24973;47.178;15.316;2022-11-06T06:47:34;2.30;;;2.10;;
21798;SDS011;24973;47.178;15.316;2022-11-06T06:50:23;2.97;;;1.53;;
21798;SDS011;24973;47.178;15.316;2022-11-06T06:53:11;2.63;;;1.67;;
21798;SDS011;24973;47.178;15.316;2022-11-06T06:56:00;1.00;;;1.00;;
21798;SDS011;24973;47.178;15.316;2022-11-06T06:58:52;1.20;;;1.17;;
21798;SDS011;24973;47.178;15.316;2022-11-06T07:01:42;1.30;;;1.20;;
21798;SDS011;24973;47.178;15.316;2022-11-06T07:04:31;1.43;;;1.33;;
21798;SDS011;24973;47.178;15.316;2022-11-06T07:07:20;1.40;;;1.30;;
21798;SDS011;24973;47.178;15.316;2022-11-06T07:10:08;0.80;;;0.80;;
21798;SDS011;24973;47.178;15.316;2022-11-06T07:12:59;3.23;;;2.30;;
21798;SDS011;24973;47.178;15.316;2022-11-06T07:15:48;3.17;;;1.17;;
21798;SDS011;24973;47.178;15.316;2022-11-06T07:18:38;1.13;;;1.03;;
21798;SDS011;24973;47.178;15.316;2022-11-06T07:21:27;2.20;;;1.40;;
21798;SDS011;24973;47.178;15.316;2022-11-06T07:24:16;1.50;;;1.40;;
21798;SDS011;24973;47.178;15.316;2022-11-06T07:27:07;2.07;;;1.70;;
21798;SDS011;24973;47.178;15.316;2022-11-06T07:29:56;5.90;;;1.50;;
21798;SDS011;24973;47.178;15.316;2022-11-06T07:32:45;1.33;;;1.23;;
21798;SDS011;24973;47.178;15.316;2022-11-06T07:35:35;4.47;;;1.30;;
21798;SDS011;24973;47.178;15.316;2022-11-06T07:38:24;1.23;;;1.13;;
21798;SDS011;24973;47.178;15.316;2022-11-06T07:41:14;2.33;;;2.20;;
21798;SDS011;24973;47.178;15.316;2022-11-06T07:44:03;1.30;;;1.23;;
21798;SDS011;24973;47.178;15.316;2022-11-06T07:46:51;1.40;;;1.30;;
21798;SDS011;24973;47.178;15.316;2022-11-06T07:49:40;2.33;;;1.70;;
21798;SDS011;24973;47.178;15.316;2022-11-06T07:52:33;1.60;;;1.50;;
21798;SDS011;24973;47.178;15.316;2022-11-06T07:55:22;2.07;;;1.77;;
21798;SDS011;24973;47.178;15.316;2022-11-06T07:58:11;1.47;;;1.37;;
21798;SDS011;24973;47.178;15.316;2022-11-06T08:01:00;2.23;;;2.03;;
21798;SDS011;24973;47.178;15.316;2022-11-06T08:03:49;1.53;;;1.43;;
21798;SDS011;24973;47.178;15.316;2022-11-06T08:06:37;1.50;;;1.40;;
21798;SDS011;24973;47.178;15.316;2022-11-06T08:09:27;1.87;;;1.60;;
21798;SDS011;24973;47.178;15.316;2022-11-06T08:12:16;1.50;;;1.40;;
21798;SDS011;24973;47.178;15.316;2022-11-06T08:15:05;2.00;;;1.23;;
21798;SDS011;24973;47.178;15.316;2022-11-06T08:17:54;1.50;;;1.40;;
21798;SDS011;24973;47.178;15.316;2022-11-06T08:20:46;1.20;;;1.10;;
21798;SDS011;24973;47.178;15.316;2022-11-06T08:23:34;1.30;;;1.20;;
21798;SDS011;24973;47.178;15.316;2022-11-06T08:26:25;0.77;;;0.77;;
21798;SDS011;24973;47.178;15.316;2022-11-06T08:29:14;2.50;;;1.30;;
21798;SDS011;24973;47.178;15.316;2022-11-06T08:32:03;1.40;;;1.30;;
21798;SDS011;24973;47.178;15.316;2022-11-06T08:34:52;1.50;;;1.40;;
21798;SDS011;24973;47.178;15.316;2022-11-06T08:37:41;2.50;;;1.37;;
21798;SDS011;24973;47.178;15.316;2022-11-06T08:40:30;1.57;;;1.47;;
21798;SDS011;24973;47.178;15.316;2022-11-06T08:43:20;4.90;;;1.30;;
21798;SDS011;24973;47.178;15.316;2022-11-06T08:46:11;0.87;;;0.83;;
21798;SDS011;24973;47.178;15.316;2022-11-06T08:49:01;1.40;;;1.30;;
21798;SDS011;24973;47.178;15.316;2022-11-06T08:51:50;3.40;;;1.33;;
21798;SDS011;24973;47.178;15.316;2022-11-06T08:54:39;2.60;;;1.77;;
21798;SDS011;24973;47.178;15.316;2022-11-06T08:57:28;3.50;;;2.20;;
21798;SDS011;24973;47.178;15.316;2022-11-06T09:00:19;2.40;;;1.60;;
21798;SDS011;24973;47.178;15.316;2022-11-06T09:03:09;1.87;;;1.70;;
21798;SDS011;24973;47.178;15.316;2022-11-06T09:06:02;3.53;;;1.97;;
21798;SDS011;24973;47.178;15.316;2022-11-06T09:08:52;3.77;;;2.10;;
21798;SDS011;24973;47.178;15.316;2022-11-06T09:11:41;3.33;;;1.90;;
21798;SDS011;24973;47.178;15.316;2022-11-06T09:14:30;2.73;;;1.50;;
21798;SDS011;24973;47.178;15.316;2022-11-06T09:17:22;1.80;;;1.40;;
21798;SDS011;24973;47.178;15.316;2022-11-06T09:20:11;1.50;;;1.40;;
21798;SDS011;24973;47.178;15.316;2022-11-06T09:23:01;1.23;;;1.13;;
21798;SDS011;24973;47.178;15.316;2022-11-06T09:25:52;1.23;;;1.10;;
21798;SDS011;24973;47.178;15.316;2022-11-06T09:28:41;1.53;;;1.00;;
21798;SDS011;24973;47.178;15.316;2022-11-06T09:31:29;5.57;;;1.33;;
21798;SDS011;24973;47.178;15.316;2022-11-06T09:34:19;3.13;;;0.90;;
21798;SDS011;24973;47.178;15.316;2022-11-06T09:37:08;1.00;;;0.80;;
21798;SDS011;24973;47.178;15.316;2022-11-06T09:39:57;1.53;;;1.20;;
21798;SDS011;24973;47.178;15.316;2022-11-06T09:42:51;0.97;;;0.87;;
21798;SDS011;24973;47.178;15.316;2022-11-06T09:46:03;1.93;;;1.60;;
21798;SDS011;24973;47.178;15.316;2022-11-06T09:49:04;2.20;;;0.93;;
21798;SDS011;24973;47.178;15.316;2022-11-06T09:52:04;0.50;;;0.50;;
21798;SDS011;24973;47.178;15.316;2022-11-06T09:54:59;3.00;;;0.90;;
21798;SDS011;24973;47.178;15.316;2022-11-06T09:57:52;0.70;;;0.70;;
21798;SDS011;24973;47.178;15.316;2022-11-06T10:00:45;0.70;;;0.70;;
21798;SDS011;24973;47.178;15.316;2022-11-06T10:03:39;0.87;;;0.70;;
21798;SDS011;24973;47.178;15.316;2022-11-06T10:06:32;1.37;;;1.03;;
21798;SDS011;24973;47.178;15.316;2022-11-06T10:09:22;1.00;;;0.83;;
21798;SDS011;24973;47.178;15.316;2022-11-06T10:12:12;3.27;;;1.70;;
21798;SDS011;24973;47.178;15.316;2022-11-06T10:15:15;1.87;;;1.27;;
21798;SDS011;24973;47.178;15.316;2022-11-06T10:18:11;0.80;;;0.70;;
21798;SDS011;24973;47.178;15.316;2022-11-06T10:21:08;0.97;;;0.70;;
21798;SDS011;24973;47.178;15.316;2022-11-06T10:23:59;0.60;;;0.60;;
21798;SDS011;24973;47.178;15.316;2022-11-06T10:27:01;0.60;;;0.60;;
21798;SDS011;24973;47.178;15.316;2022-11-06T10:30:00;1.47;;;1.23;;
21798;SDS011;24973;47.178;15.316;2022-11-06T10:33:06;0.73;;;0.73;;
21798;SDS011;24973;47.178;15.316;2022-11-06T10:36:10;0.80;;;0.70;;
21798;SDS011;24973;47.178;15.316;2022-11-06T10:39:03;0.47;;;0.47;;
21798;SDS011;24973;47.178;15.316;2022-11-06T10:42:04;0.80;;;0.60;;
21798;SDS011;24973;47.178;15.316;2022-11-06T10:44:59;0.80;;;0.60;;
21798;SDS011;24973;47.178;15.316;2022-11-06T10:47:53;1.13;;;0.40;;
21798;SDS011;24973;47.178;15.316;2022-11-06T10:50:47;0.50;;;0.50;;
21798;SDS011;24973;47.178;15.316;2022-11-06T10:53:50;0.73;;;0.73;;
21798;SDS011;24973;47.178;15.316;2022-11-06T10:56:53;1.13;;;0.70;;
21798;SDS011;24973;47.178;15.316;2022-11-06T11:00:14;0.50;;;0.50;;
21798;SDS011;24973;47.178;15.316;2022-11-06T11:03:04;0.63;;;0.63;;
21798;SDS011;24973;47.178;15.316;2022-11-06T11:06:01;0.53;;;0.33;;
21798;SDS011;24973;47.178;15.316;2022-11-06T11:08:51;0.53;;;0.37;;
21798;SDS011;24973;47.178;15.316;2022-11-06T11:11:39;1.00;;;0.60;;
21798;SDS011;24973;47.178;15.316;2022-11-06T11:14:36;0.70;;;0.43;;
21798;SDS011;24973;47.178;15.316;2022-11-06T11:17:26;0.40;;;0.40;;
21798;SDS011;24973;47.178;15.316;2022-11-06T11:20:27;0.30;;;0.30;;
21798;SDS011;24973;47.178;15.316;2022-11-06T11:23:19;1.10;;;0.70;;
21798;SDS011;24973;47.178;15.316;2022-11-06T11:26:18;1.40;;;0.80;;
21798;SDS011;24973;47.178;15.316;2022-11-06T11:29:12;1.10;;;1.00;;
21798;SDS011;24973;47.178;15.316;2022-11-06T11:32:03;1.43;;;1.03;;
21798;SDS011;24973;47.178;15.316;2022-11-06T11:34:55;2.07;;;1.20;;
21798;SDS011;24973;47.178;15.316;2022-11-06T11:37:45;1.57;;;1.00;;
21798;SDS011;24973;47.178;15.316;2022-11-06T11:40:35;1.57;;;0.80;;
21798;SDS011;24973;47.178;15.316;2022-11-06T11:43:25;2.23;;;0.60;;
21798;SDS011;24973;47.178;15.316;2022-11-06T11:46:18;0.50;;;0.50;;
21798;SDS011;24973;47.178;15.316;2022-11-06T11:49:07;0.90;;;0.40;;
21798;SDS011;24973;47.178;15.316;2022-11-06T11:52:17;1.70;;;0.70;;
21798;SDS011;24973;47.178;15.316;2022-11-06T11:55:12;2.20;;;0.77;;
21798;SDS011;24973;47.178;15.316;2022-11-06T11:58:03;0.57;;;0.50;;
21798;SDS011;24973;47.178;15.316;2022-11-06T12:01:05;1.07;;;0.47;;
21798;SDS011;24973;47.178;15.316;2022-11-06T12:03:54;0.77;;;0.60;;
21798;SDS011;24973;47.178;15.316;2022-11-06T12:06:54;1.57;;;0.50;;
21798;SDS011;24973;47.178;15.316;2022-11-06T12:09:48;0.60;;;0.37;;
21798;SDS011;24973;47.178;15.316;2022-11-06T12:12:37;0.90;;;0.63;;
21798;SDS011;24973;47.178;15.316;2022-11-06T12:15:27;0.30;;;0.30;;
21798;SDS011;24973;47.178;15.316;2022-11-06T12:18:22;0.60;;;0.60;;
21798;SDS011;24973;47.178;15.316;2022-11-06T12:21:16;1.20;;;0.80;;
21798;SDS011;24973;47.178;15.316;2022-11-06T12:24:13;0.93;;;0.50;;
21798;SDS011;24973;47.178;15.316;2022-11-06T12:27:09;0.90;;;0.60;;
21798;SDS011;24973;47.178;15.316;2022-11-06T12:30:03;0.50;;;0.50;;
21798;SDS011;24973;47.178;15.316;2022-11-06T12:32:59;0.50;;;0.50;;
21798;SDS011;24973;47.178;15.316;2022-11-06T12:35:58;2.63;;;0.70;;
21798;SDS011;24973;47.178;15.316;2022-11-06T12:38:53;1.70;;;1.17;;
21798;SDS011;24973;47.178;15.316;2022-11-06T12:41:46;0.80;;;0.80;;
21798;SDS011;24973;47.178;15.316;2022-11-06T12:44:38;1.53;;;1.17;;
21798;SDS011;24973;47.178;15.316;2022-11-06T12:47:31;1.30;;;1.20;;
21798;SDS011;24973;47.178;15.316;2022-11-06T12:50:32;1.30;;;1.20;;
21798;SDS011;24973;47.178;15.316;2022-11-06T12:53:31;2.00;;;1.30;;
21798;SDS011;24973;47.178;15.316;2022-11-06T12:56:33;1.70;;;1.50;;
21798;SDS011;24973;47.178;15.316;2022-11-06T12:59:32;3.50;;;3.20;;
21798;SDS011;24973;47.178;15.316;2022-11-06T13:02:43;0.63;;;0.63;;
21798;SDS011;24973;47.178;15.316;2022-11-06T13:05:51;0.93;;;0.80;;
21798;SDS011;24973;47.178;15.316;2022-11-06T13:08:48;0.70;;;0.70;;
21798;SDS011;24973;47.178;15.316;2022-11-06T13:11:45;1.47;;;1.30;;
21798;SDS011;24973;47.178;15.316;2022-11-06T13:14:57;0.63;;;0.60;;
21798;SDS011;24973;47.178;15.316;2022-11-06T13:17:56;1.87;;;1.43;;
21798;SDS011;24973;47.178;15.316;2022-11-06T13:20:49;2.27;;;2.07;;
21798;SDS011;24973;47.178;15.316;2022-11-06T13:23:47;1.77;;;1.50;;
21798;SDS011;24973;47.178;15.316;2022-11-06T13:26:39;2.23;;;1.37;;
21798;SDS011;24973;47.178;15.316;2022-11-06T13:29:30;1.73;;;1.05;;
21798;SDS011;24973;47.178;15.316;2022-11-06T13:32:21;1.30;;;1.20;;
21798;SDS011;24973;47.178;15.316;2022-11-06T13:35:13;1.10;;;1.00;;
21798;SDS011;24973;47.178;15.316;2022-11-06T13:38:05;1.27;;;0.93;;
21798;SDS011;24973;47.178;15.316;2022-11-06T13:40:59;0.87;;;0.70;;
21798;SDS011;24973;47.178;15.316;2022-11-06T13:43:57;0.80;;;0.80;;
21798;SDS011;24973;47.178;15.316;2022-11-06T13:46:52;1.47;;;1.30;;
21798;SDS011;24973;47.178;15.316;2022-11-06T13:49:50;1.00;;;0.90;;
21798;SDS011;24973;47.178;15.316;2022-11-06T13:52:50;1.80;;;1.10;;
21798;SDS011;24973;47.178;15.316;2022-11-06T13:55:48;1.40;;;0.80;;
21798;SDS011;24973;47.178;15.316;2022-11-06T13:58:51;1.10;;;0.97;;
21798;SDS011;24973;47.178;15.316;2022-11-06T14:02:15;0.90;;;0.90;;
21798;SDS011;24973;47.178;15.316;2022-11-06T14:05:43;1.20;;;1.10;;
21798;SDS011;24973;47.178;15.316;2022-11-06T14:08:39;0.80;;;0.70;;
21798;SDS011;24973;47.178;15.316;2022-11-06T14:11:32;1.20;;;1.03;;
21798;SDS011;24973;47.178;15.316;2022-11-06T14:14:25;1.27;;;1.10;;
21798;SDS011;24973;47.178;15.316;2022-11-06T14:17:20;1.40;;;1.30;;
21798;SDS011;24973;47.178;15.316;2022-11-06T14:20:25;1.30;;;1.20;;
21798;SDS011;24973;47.178;15.316;2022-11-06T14:26:41;1.00;;;0.90;;
21798;SDS011;24973;47.178;15.316;2022-11-06T14:32:46;2.63;;;1.33;;
21798;SDS011;24973;47.178;15.316;2022-11-06T14:38:39;1.10;;;1.00;;
21798;SDS011;24973;47.178;15.316;2022-11-06T14:44:47;1.73;;;1.10;;
21798;SDS011;24973;47.178;15.316;2022-11-06T14:47:38;3.57;;;1.13;;
21798;SDS011;24973;47.178;15.316;2022-11-06T14:50:30;1.10;;;1.00;;
21798;SDS011;24973;47.178;15.316;2022-11-06T14:53:26;1.87;;;1.00;;
21798;SDS011;24973;47.178;15.316;2022-11-06T14:56:20;1.20;;;1.10;;
21798;SDS011;24973;47.178;15.316;2022-11-06T14:59:17;1.77;;;1.63;;
21798;SDS011;24973;47.178;15.316;2022-11-06T15:02:12;1.43;;;1.30;;
21798;SDS011;24973;47.178;15.316;2022-11-06T15:05:07;1.97;;;0.70;;
21798;SDS011;24973;47.178;15.316;2022-11-06T15:08:04;1.77;;;1.17;;
21798;SDS011;24973;47.178;15.316;2022-11-06T15:10:53;1.53;;;1.43;;
21798;SDS011;24973;47.178;15.316;2022-11-06T15:13:42;4.23;;;2.80;;
21798;SDS011;24973;47.178;15.316;2022-11-06T15:16:33;3.60;;;2.60;;
21798;SDS011;24973;47.178;15.316;2022-11-06T15:19:26;4.67;;;2.50;;
21798;SDS011;24973;47.178;15.316;2022-11-06T15:22:19;6.83;;;4.67;;
21798;SDS011;24973;47.178;15.316;2022-11-06T15:25:20;10.53;;;6.47;;
21798;SDS011;24973;47.178;15.316;2022-11-06T15:28:11;9.07;;;5.27;;
21798;SDS011;24973;47.178;15.316;2022-11-06T15:31:06;7.53;;;4.17;;
21798;SDS011;24973;47.178;15.316;2022-11-06T15:34:02;3.93;;;2.83;;
21798;SDS011;24973;47.178;15.316;2022-11-06T15:36:55;2.23;;;1.60;;
21798;SDS011;24973;47.178;15.316;2022-11-06T15:39:56;1.77;;;1.03;;
21798;SDS011;24973;47.178;15.316;2022-11-06T15:42:46;5.83;;;2.23;;
21798;SDS011;24973;47.178;15.316;2022-11-06T15:45:35;2.07;;;1.60;;
21798;SDS011;24973;47.178;15.316;2022-11-06T15:48:24;2.63;;;1.77;;
21798;SDS011;24973;47.178;15.316;2022-11-06T15:51:24;2.23;;;1.63;;
21798;SDS011;24973;47.178;15.316;2022-11-06T15:54:23;2.87;;;1.43;;
21798;SDS011;24973;47.178;15.316;2022-11-06T15:57:22;1.30;;;1.20;;
21798;SDS011;24973;47.178;15.316;2022-11-06T16:00:16;2.37;;;2.17;;
21798;SDS011;24973;47.178;15.316;2022-11-06T16:03:09;7.55;;;4.22;;
21798;SDS011;24973;47.178;15.316;2022-11-06T16:06:02;2.55;;;2.10;;
21798;SDS011;24973;47.178;15.316;2022-11-06T16:08:53;2.27;;;2.07;;
21798;SDS011;24973;47.178;15.316;2022-11-06T16:11:44;3.43;;;1.83;;
21798;SDS011;24973;47.178;15.316;2022-11-06T16:14:37;3.27;;;1.93;;
21798;SDS011;24973;47.178;15.316;2022-11-06T16:17:26;4.27;;;3.40;;
21798;SDS011;24973;47.178;15.316;2022-11-06T16:20:15;2.87;;;2.50;;
21798;SDS011;24973;47.178;15.316;2022-11-06T16:23:04;2.07;;;1.70;;
21798;SDS011;24973;47.178;15.316;2022-11-06T16:26:01;4.40;;;3.43;;
21798;SDS011;24973;47.178;15.316;2022-11-06T16:28:52;2.40;;;2.20;;
21798;SDS011;24973;47.178;15.316;2022-11-06T16:31:42;3.43;;;2.50;;
21798;SDS011;24973;47.178;15.316;2022-11-06T16:34:35;8.63;;;2.00;;
21798;SDS011;24973;47.178;15.316;2022-11-06T16:37:36;2.77;;;2.00;;
21798;SDS011;24973;47.178;15.316;2022-11-06T16:43:39;3.13;;;1.47;;
21798;SDS011;24973;47.178;15.316;2022-11-06T16:46:29;1.63;;;1.53;;
21798;SDS011;24973;47.178;15.316;2022-11-06T16:49:59;3.67;;;2.00;;
21798;SDS011;24973;47.178;15.316;2022-11-06T16:52:51;2.23;;;1.77;;
21798;SDS011;24973;47.178;15.316;2022-11-06T16:55:40;1.60;;;1.50;;
21798;SDS011;24973;47.178;15.316;2022-11-06T16:58:29;2.33;;;1.90;;
21798;SDS011;24973;47.178;15.316;2022-11-06T17:01:23;2.00;;;1.80;;
21798;SDS011;24973;47.178;15.316;2022-11-06T17:04:18;2.30;;;2.10;;
21798;SDS011;24973;47.178;15.316;2022-11-06T17:07:11;3.30;;;1.47;;
21798;SDS011;24973;47.178;15.316;2022-11-06T17:13:25;1.83;;;1.73;;
21798;SDS011;24973;47.178;15.316;2022-11-06T17:16:15;3.87;;;1.37;;
21798;SDS011;24973;47.178;15.316;2022-11-06T17:19:07;2.07;;;1.70;;
21798;SDS011;24973;47.178;15.316;2022-11-06T17:21:56;2.57;;;1.60;;
21798;SDS011;24973;47.178;15.316;2022-11-06T17:24:45;2.93;;;2.13;;
21798;SDS011;24973;47.178;15.316;2022-11-06T17:27:33;1.90;;;1.80;;
21798;SDS011;24973;47.178;15.316;2022-11-06T17:30:22;2.03;;;1.87;;